sensor_id;sensor_type;location;lat;lon;timestamp;P1;durP1;ratioP1;P2;durP2;ratioP2
1651;SDS011;823;49.028;8.454;2023-05-19T00:04:55;6.40;;;2.37;;
1651;SDS011;823;49.028;8.454;2023-05-19T00:09:57;4.53;;;2.23;;
1651;SDS011;823;49.028;8.454;2023-05-19T00:14:57;3.03;;;2.00;;
1651;SDS011;823;49.028;8.454;2023-05-19T00:19:58;4.40;;;1.87;;
1651;SDS011;823;49.028;8.454;2023-05-19T00:24:58;4.27;;;1.97;;
1651;SDS011;823;49.028;8.454;2023-05-19T00:29:58;7.23;;;2.17;;
1651;SDS011;823;49.028;8.454;2023-05-19T00:34:59;7.53;;;2.47;;
1651;SDS011;823;49.028;8.454;2023-05-19T00:39:59;10.40;;;1.60;;
1651;SDS011;823;49.028;8.454;2023-05-19T00:44:59;3.77;;;1.60;;
1651;SDS011;823;49.028;8.454;2023-05-19T00:50:00;5.25;;;1.83;;
1651;SDS011;823;49.028;8.454;2023-05-19T00:55:00;5.70;;;2.27;;
1651;SDS011;823;49.028;8.454;2023-05-19T01:00:01;4.73;;;1.70;;
1651;SDS011;823;49.028;8.454;2023-05-19T01:05:02;6.80;;;2.33;;
1651;SDS011;823;49.028;8.454;2023-05-19T01:10:03;15.43;;;2.70;;
1651;SDS011;823;49.028;8.454;2023-05-19T01:15:05;3.20;;;1.90;;
1651;SDS011;823;49.028;8.454;2023-05-19T01:20:09;13.27;;;2.43;;
1651;SDS011;823;49.028;8.454;2023-05-19T01:25:30;6.50;;;1.47;;
1651;SDS011;823;49.028;8.454;2023-05-19T01:30:47;9.93;;;1.77;;
1651;SDS011;823;49.028;8.454;2023-05-19T01:35:51;8.60;;;2.20;;
1651;SDS011;823;49.028;8.454;2023-05-19T01:40:54;4.83;;;2.23;;
1651;SDS011;823;49.028;8.454;2023-05-19T01:45:56;5.70;;;1.90;;
1651;SDS011;823;49.028;8.454;2023-05-19T01:50:57;4.10;;;2.03;;
1651;SDS011;823;49.028;8.454;2023-05-19T01:55:59;6.43;;;2.47;;
1651;SDS011;823;49.028;8.454;2023-05-19T02:06:23;9.77;;;2.20;;
1651;SDS011;823;49.028;8.454;2023-05-19T02:12:00;5.20;;;2.07;;
1651;SDS011;823;49.028;8.454;2023-05-19T02:17:05;9.97;;;2.90;;
1651;SDS011;823;49.028;8.454;2023-05-19T02:22:05;2.90;;;2.10;;
1651;SDS011;823;49.028;8.454;2023-05-19T02:27:05;7.97;;;2.30;;
1651;SDS011;823;49.028;8.454;2023-05-19T02:32:06;3.27;;;2.30;;
1651;SDS011;823;49.028;8.454;2023-05-19T02:37:07;4.97;;;3.00;;
1651;SDS011;823;49.028;8.454;2023-05-19T02:42:07;3.50;;;2.27;;
1651;SDS011;823;49.028;8.454;2023-05-19T02:47:08;11.60;;;2.20;;
1651;SDS011;823;49.028;8.454;2023-05-19T02:52:08;4.43;;;2.33;;
1651;SDS011;823;49.028;8.454;2023-05-19T02:57:08;7.83;;;2.47;;
1651;SDS011;823;49.028;8.454;2023-05-19T03:02:10;4.40;;;1.97;;
1651;SDS011;823;49.028;8.454;2023-05-19T03:07:10;5.33;;;1.83;;
1651;SDS011;823;49.028;8.454;2023-05-19T03:12:12;5.10;;;1.80;;
1651;SDS011;823;49.028;8.454;2023-05-19T03:17:12;9.07;;;2.38;;
1651;SDS011;823;49.028;8.454;2023-05-19T03:22:12;4.90;;;3.23;;
1651;SDS011;823;49.028;8.454;2023-05-19T03:27:13;8.37;;;2.50;;
1651;SDS011;823;49.028;8.454;2023-05-19T03:32:13;3.83;;;2.30;;
1651;SDS011;823;49.028;8.454;2023-05-19T03:37:14;10.10;;;2.57;;
1651;SDS011;823;49.028;8.454;2023-05-19T03:42:14;9.20;;;2.70;;
1651;SDS011;823;49.028;8.454;2023-05-19T03:47:15;6.67;;;3.00;;
1651;SDS011;823;49.028;8.454;2023-05-19T03:52:15;4.50;;;2.20;;
1651;SDS011;823;49.028;8.454;2023-05-19T03:57:15;5.63;;;2.33;;
1651;SDS011;823;49.028;8.454;2023-05-19T04:02:16;2.90;;;2.30;;
1651;SDS011;823;49.028;8.454;2023-05-19T04:07:16;8.33;;;2.60;;
1651;SDS011;823;49.028;8.454;2023-05-19T04:12:16;3.80;;;1.92;;
1651;SDS011;823;49.028;8.454;2023-05-19T04:17:17;6.60;;;2.37;;
1651;SDS011;823;49.028;8.454;2023-05-19T04:22:17;10.50;;;3.23;;
1651;SDS011;823;49.028;8.454;2023-05-19T04:27:17;8.77;;;3.07;;
1651;SDS011;823;49.028;8.454;2023-05-19T04:32:18;6.70;;;2.57;;
1651;SDS011;823;49.028;8.454;2023-05-19T04:37:18;7.47;;;2.97;;
1651;SDS011;823;49.028;8.454;2023-05-19T04:42:19;7.93;;;2.20;;
1651;SDS011;823;49.028;8.454;2023-05-19T04:47:19;5.77;;;2.50;;
1651;SDS011;823;49.028;8.454;2023-05-19T04:52:20;7.37;;;2.90;;
1651;SDS011;823;49.028;8.454;2023-05-19T04:57:21;7.83;;;2.70;;
1651;SDS011;823;49.028;8.454;2023-05-19T05:02:21;5.90;;;2.65;;
1651;SDS011;823;49.028;8.454;2023-05-19T05:07:22;2.75;;;2.10;;
1651;SDS011;823;49.028;8.454;2023-05-19T05:12:22;8.30;;;3.53;;
1651;SDS011;823;49.028;8.454;2023-05-19T05:17:23;3.87;;;2.07;;
1651;SDS011;823;49.028;8.454;2023-05-19T05:22:24;3.43;;;2.73;;
1651;SDS011;823;49.028;8.454;2023-05-19T05:27:25;6.80;;;3.00;;
1651;SDS011;823;49.028;8.454;2023-05-19T05:32:26;4.07;;;2.43;;
1651;SDS011;823;49.028;8.454;2023-05-19T05:37:26;7.23;;;3.23;;
1651;SDS011;823;49.028;8.454;2023-05-19T05:42:26;6.73;;;2.47;;
1651;SDS011;823;49.028;8.454;2023-05-19T05:47:27;9.20;;;2.20;;
1651;SDS011;823;49.028;8.454;2023-05-19T05:52:28;11.43;;;2.63;;
1651;SDS011;823;49.028;8.454;2023-05-19T05:57:29;8.43;;;2.60;;
1651;SDS011;823;49.028;8.454;2023-05-19T06:02:30;7.60;;;2.88;;
1651;SDS011;823;49.028;8.454;2023-05-19T06:07:30;6.13;;;2.77;;
1651;SDS011;823;49.028;8.454;2023-05-19T06:12:31;8.27;;;3.07;;
1651;SDS011;823;49.028;8.454;2023-05-19T06:17:31;4.57;;;2.17;;
1651;SDS011;823;49.028;8.454;2023-05-19T06:22:33;10.23;;;2.50;;
1651;SDS011;823;49.028;8.454;2023-05-19T06:27:34;11.85;;;2.38;;
1651;SDS011;823;49.028;8.454;2023-05-19T06:32:34;2.50;;;2.30;;
1651;SDS011;823;49.028;8.454;2023-05-19T06:37:35;11.10;;;2.83;;
1651;SDS011;823;49.028;8.454;2023-05-19T06:42:35;5.30;;;2.47;;
1651;SDS011;823;49.028;8.454;2023-05-19T06:47:35;5.00;;;2.35;;
1651;SDS011;823;49.028;8.454;2023-05-19T06:52:36;4.03;;;2.55;;
1651;SDS011;823;49.028;8.454;2023-05-19T06:57:36;12.67;;;3.37;;
1651;SDS011;823;49.028;8.454;2023-05-19T07:02:37;4.30;;;2.13;;
1651;SDS011;823;49.028;8.454;2023-05-19T07:07:38;6.20;;;1.73;;
1651;SDS011;823;49.028;8.454;2023-05-19T07:12:38;2.53;;;1.70;;
1651;SDS011;823;49.028;8.454;2023-05-19T07:17:39;7.77;;;1.60;;
1651;SDS011;823;49.028;8.454;2023-05-19T07:22:39;8.03;;;2.33;;
1651;SDS011;823;49.028;8.454;2023-05-19T07:27:40;5.03;;;2.00;;
1651;SDS011;823;49.028;8.454;2023-05-19T07:32:40;10.48;;;2.33;;
1651;SDS011;823;49.028;8.454;2023-05-19T07:37:40;5.07;;;1.73;;
1651;SDS011;823;49.028;8.454;2023-05-19T07:42:41;4.43;;;1.80;;
1651;SDS011;823;49.028;8.454;2023-05-19T07:47:41;9.33;;;2.90;;
1651;SDS011;823;49.028;8.454;2023-05-19T07:52:42;7.20;;;1.87;;
1651;SDS011;823;49.028;8.454;2023-05-19T07:57:42;9.52;;;2.25;;
1651;SDS011;823;49.028;8.454;2023-05-19T08:02:42;5.27;;;2.60;;
1651;SDS011;823;49.028;8.454;2023-05-19T08:07:43;11.77;;;2.20;;
1651;SDS011;823;49.028;8.454;2023-05-19T08:12:44;6.90;;;1.87;;
1651;SDS011;823;49.028;8.454;2023-05-19T08:17:45;11.20;;;2.00;;
1651;SDS011;823;49.028;8.454;2023-05-19T08:22:46;13.90;;;3.70;;
1651;SDS011;823;49.028;8.454;2023-05-19T08:27:46;8.20;;;1.80;;
1651;SDS011;823;49.028;8.454;2023-05-19T08:32:46;5.87;;;1.90;;
1651;SDS011;823;49.028;8.454;2023-05-19T08:37:47;4.70;;;1.97;;
1651;SDS011;823;49.028;8.454;2023-05-19T08:42:48;8.87;;;2.20;;
1651;SDS011;823;49.028;8.454;2023-05-19T08:47:48;8.57;;;3.13;;
1651;SDS011;823;49.028;8.454;2023-05-19T08:52:51;8.23;;;2.47;;
1651;SDS011;823;49.028;8.454;2023-05-19T08:57:56;8.90;;;1.73;;
1651;SDS011;823;49.028;8.454;2023-05-19T09:02:57;4.50;;;2.13;;
1651;SDS011;823;49.028;8.454;2023-05-19T09:07:59;4.00;;;1.43;;
1651;SDS011;823;49.028;8.454;2023-05-19T09:13:02;5.97;;;2.17;;
1651;SDS011;823;49.028;8.454;2023-05-19T09:18:07;6.17;;;1.87;;
1651;SDS011;823;49.028;8.454;2023-05-19T09:23:12;9.90;;;2.00;;
1651;SDS011;823;49.028;8.454;2023-05-19T09:28:27;6.97;;;1.50;;
1651;SDS011;823;49.028;8.454;2023-05-19T09:33:33;9.00;;;1.80;;
1651;SDS011;823;49.028;8.454;2023-05-19T09:38:37;6.57;;;1.83;;
1651;SDS011;823;49.028;8.454;2023-05-19T09:43:38;8.00;;;2.30;;
1651;SDS011;823;49.028;8.454;2023-05-19T09:48:38;11.23;;;2.13;;
1651;SDS011;823;49.028;8.454;2023-05-19T09:53:38;8.27;;;1.63;;
1651;SDS011;823;49.028;8.454;2023-05-19T09:58:40;4.53;;;2.03;;
1651;SDS011;823;49.028;8.454;2023-05-19T10:03:40;7.00;;;2.23;;
1651;SDS011;823;49.028;8.454;2023-05-19T10:08:41;6.50;;;1.60;;
1651;SDS011;823;49.028;8.454;2023-05-19T10:13:42;11.40;;;2.10;;
1651;SDS011;823;49.028;8.454;2023-05-19T10:18:44;4.90;;;1.60;;
1651;SDS011;823;49.028;8.454;2023-05-19T10:23:45;5.57;;;1.73;;
1651;SDS011;823;49.028;8.454;2023-05-19T10:28:46;5.53;;;1.50;;
1651;SDS011;823;49.028;8.454;2023-05-19T10:39:26;9.93;;;2.60;;
1651;SDS011;823;49.028;8.454;2023-05-19T10:44:39;5.07;;;2.60;;
1651;SDS011;823;49.028;8.454;2023-05-19T10:49:59;8.33;;;2.13;;
1651;SDS011;823;49.028;8.454;2023-05-19T10:55:00;5.00;;;1.73;;
1651;SDS011;823;49.028;8.454;2023-05-19T11:00:02;15.33;;;2.30;;
1651;SDS011;823;49.028;8.454;2023-05-19T11:05:11;7.40;;;2.70;;
1651;SDS011;823;49.028;8.454;2023-05-19T11:10:21;5.17;;;2.07;;
1651;SDS011;823;49.028;8.454;2023-05-19T11:15:25;5.53;;;1.90;;
1651;SDS011;823;49.028;8.454;2023-05-19T11:20:27;7.30;;;2.07;;
1651;SDS011;823;49.028;8.454;2023-05-19T11:30:47;4.97;;;2.30;;
1651;SDS011;823;49.028;8.454;2023-05-19T11:35:51;5.90;;;1.80;;
1651;SDS011;823;49.028;8.454;2023-05-19T11:40:53;2.43;;;1.70;;
1651;SDS011;823;49.028;8.454;2023-05-19T11:45:53;4.93;;;1.60;;
1651;SDS011;823;49.028;8.454;2023-05-19T11:50:54;5.33;;;1.60;;
1651;SDS011;823;49.028;8.454;2023-05-19T11:55:55;12.53;;;4.17;;
1651;SDS011;823;49.028;8.454;2023-05-19T12:01:02;5.20;;;1.60;;
1651;SDS011;823;49.028;8.454;2023-05-19T12:06:03;5.23;;;1.47;;
1651;SDS011;823;49.028;8.454;2023-05-19T12:11:05;2.50;;;1.33;;
1651;SDS011;823;49.028;8.454;2023-05-19T12:16:07;4.53;;;2.10;;
1651;SDS011;823;49.028;8.454;2023-05-19T12:21:08;4.87;;;1.73;;
1651;SDS011;823;49.028;8.454;2023-05-19T12:26:08;4.40;;;1.80;;
1651;SDS011;823;49.028;8.454;2023-05-19T12:31:09;3.67;;;2.13;;
1651;SDS011;823;49.028;8.454;2023-05-19T12:36:10;7.40;;;3.40;;
1651;SDS011;823;49.028;8.454;2023-05-19T12:41:12;5.40;;;3.00;;
1651;SDS011;823;49.028;8.454;2023-05-19T12:46:13;6.20;;;2.10;;
1651;SDS011;823;49.028;8.454;2023-05-19T12:51:16;6.97;;;2.93;;
1651;SDS011;823;49.028;8.454;2023-05-19T12:56:17;3.67;;;1.97;;
1651;SDS011;823;49.028;8.454;2023-05-19T13:01:17;7.20;;;2.60;;
1651;SDS011;823;49.028;8.454;2023-05-19T13:06:17;7.77;;;3.20;;
1651;SDS011;823;49.028;8.454;2023-05-19T13:11:18;6.60;;;3.87;;
1651;SDS011;823;49.028;8.454;2023-05-19T13:16:18;61.50;;;20.13;;
1651;SDS011;823;49.028;8.454;2023-05-19T13:21:18;46.78;;;19.80;;
1651;SDS011;823;49.028;8.454;2023-05-19T13:26:19;48.63;;;21.10;;
1651;SDS011;823;49.028;8.454;2023-05-19T13:31:20;30.47;;;15.90;;
1651;SDS011;823;49.028;8.454;2023-05-19T13:36:20;13.50;;;5.97;;
1651;SDS011;823;49.028;8.454;2023-05-19T13:41:24;16.23;;;8.90;;
1651;SDS011;823;49.028;8.454;2023-05-19T13:46:31;9.10;;;4.37;;
1651;SDS011;823;49.028;8.454;2023-05-19T13:51:31;12.65;;;3.63;;
1651;SDS011;823;49.028;8.454;2023-05-19T13:56:31;25.40;;;12.77;;
1651;SDS011;823;49.028;8.454;2023-05-19T14:01:32;12.98;;;5.10;;
1651;SDS011;823;49.028;8.454;2023-05-19T14:06:32;18.33;;;9.77;;
1651;SDS011;823;49.028;8.454;2023-05-19T14:11:32;11.65;;;5.30;;
1651;SDS011;823;49.028;8.454;2023-05-19T14:16:33;22.70;;;11.47;;
1651;SDS011;823;49.028;8.454;2023-05-19T14:21:33;17.50;;;7.63;;
1651;SDS011;823;49.028;8.454;2023-05-19T14:26:33;13.10;;;4.20;;
1651;SDS011;823;49.028;8.454;2023-05-19T14:31:34;4.43;;;2.20;;
1651;SDS011;823;49.028;8.454;2023-05-19T14:36:34;12.50;;;4.27;;
1651;SDS011;823;49.028;8.454;2023-05-19T14:41:35;4.60;;;2.22;;
1651;SDS011;823;49.028;8.454;2023-05-19T14:46:35;6.25;;;3.03;;
1651;SDS011;823;49.028;8.454;2023-05-19T14:51:35;6.78;;;3.08;;
1651;SDS011;823;49.028;8.454;2023-05-19T14:56:36;7.43;;;2.77;;
1651;SDS011;823;49.028;8.454;2023-05-19T15:01:36;12.60;;;3.40;;
1651;SDS011;823;49.028;8.454;2023-05-19T15:06:36;12.77;;;4.97;;
1651;SDS011;823;49.028;8.454;2023-05-19T15:11:37;10.98;;;5.15;;
1651;SDS011;823;49.028;8.454;2023-05-19T15:16:37;9.00;;;3.20;;
1651;SDS011;823;49.028;8.454;2023-05-19T15:21:37;10.18;;;3.30;;
1651;SDS011;823;49.028;8.454;2023-05-19T15:26:38;15.40;;;5.50;;
1651;SDS011;823;49.028;8.454;2023-05-19T15:31:39;15.27;;;6.13;;
1651;SDS011;823;49.028;8.454;2023-05-19T15:36:39;108.10;;;6.40;;
1651;SDS011;823;49.028;8.454;2023-05-19T15:41:39;6.50;;;3.13;;
1651;SDS011;823;49.028;8.454;2023-05-19T15:46:40;4.37;;;1.97;;
1651;SDS011;823;49.028;8.454;2023-05-19T15:51:40;7.60;;;3.63;;
1651;SDS011;823;49.028;8.454;2023-05-19T15:56:40;4.57;;;1.80;;
1651;SDS011;823;49.028;8.454;2023-05-19T16:01:41;14.80;;;6.90;;
1651;SDS011;823;49.028;8.454;2023-05-19T16:06:41;19.27;;;6.87;;
1651;SDS011;823;49.028;8.454;2023-05-19T16:11:42;28.83;;;9.30;;
1651;SDS011;823;49.028;8.454;2023-05-19T16:16:42;10.18;;;2.70;;
1651;SDS011;823;49.028;8.454;2023-05-19T16:21:43;10.87;;;4.90;;
1651;SDS011;823;49.028;8.454;2023-05-19T16:26:43;10.85;;;5.45;;
1651;SDS011;823;49.028;8.454;2023-05-19T16:31:43;3.60;;;2.60;;
1651;SDS011;823;49.028;8.454;2023-05-19T16:36:44;5.20;;;1.93;;
1651;SDS011;823;49.028;8.454;2023-05-19T16:41:44;5.27;;;2.63;;
1651;SDS011;823;49.028;8.454;2023-05-19T16:46:44;3.70;;;1.93;;
1651;SDS011;823;49.028;8.454;2023-05-19T16:51:45;5.50;;;2.33;;
1651;SDS011;823;49.028;8.454;2023-05-19T16:56:45;6.47;;;2.05;;
1651;SDS011;823;49.028;8.454;2023-05-19T17:01:46;5.90;;;1.80;;
1651;SDS011;823;49.028;8.454;2023-05-19T17:06:46;10.23;;;3.63;;
1651;SDS011;823;49.028;8.454;2023-05-19T17:11:46;3.87;;;1.93;;
1651;SDS011;823;49.028;8.454;2023-05-19T17:16:47;4.33;;;2.00;;
1651;SDS011;823;49.028;8.454;2023-05-19T17:21:48;4.85;;;2.00;;
1651;SDS011;823;49.028;8.454;2023-05-19T17:26:48;3.87;;;1.90;;
1651;SDS011;823;49.028;8.454;2023-05-19T17:31:48;2.77;;;1.87;;
1651;SDS011;823;49.028;8.454;2023-05-19T17:36:49;4.68;;;1.85;;
1651;SDS011;823;49.028;8.454;2023-05-19T17:41:49;6.73;;;2.20;;
1651;SDS011;823;49.028;8.454;2023-05-19T17:46:49;8.30;;;1.90;;
1651;SDS011;823;49.028;8.454;2023-05-19T17:51:50;3.10;;;1.90;;
1651;SDS011;823;49.028;8.454;2023-05-19T17:56:51;5.57;;;2.10;;
1651;SDS011;823;49.028;8.454;2023-05-19T18:01:52;5.70;;;2.10;;
1651;SDS011;823;49.028;8.454;2023-05-19T18:06:52;2.30;;;1.50;;
1651;SDS011;823;49.028;8.454;2023-05-19T18:11:55;2.20;;;1.50;;
1651;SDS011;823;49.028;8.454;2023-05-19T18:16:55;6.67;;;1.93;;
1651;SDS011;823;49.028;8.454;2023-05-19T18:21:56;16.45;;;6.72;;
1651;SDS011;823;49.028;8.454;2023-05-19T18:26:56;7.10;;;3.30;;
1651;SDS011;823;49.028;8.454;2023-05-19T18:31:56;5.80;;;2.17;;
1651;SDS011;823;49.028;8.454;2023-05-19T18:36:57;4.80;;;2.13;;
1651;SDS011;823;49.028;8.454;2023-05-19T18:41:57;3.33;;;1.92;;
1651;SDS011;823;49.028;8.454;2023-05-19T18:46:57;4.03;;;2.03;;
1651;SDS011;823;49.028;8.454;2023-05-19T18:51:58;3.33;;;2.30;;
1651;SDS011;823;49.028;8.454;2023-05-19T18:56:58;2.27;;;1.80;;
1651;SDS011;823;49.028;8.454;2023-05-19T19:02:00;3.53;;;1.90;;
1651;SDS011;823;49.028;8.454;2023-05-19T19:07:00;6.30;;;2.23;;
1651;SDS011;823;49.028;8.454;2023-05-19T19:12:00;5.60;;;2.33;;
1651;SDS011;823;49.028;8.454;2023-05-19T19:17:01;4.35;;;2.10;;
1651;SDS011;823;49.028;8.454;2023-05-19T19:22:01;6.53;;;3.10;;
1651;SDS011;823;49.028;8.454;2023-05-19T19:27:01;6.40;;;2.60;;
1651;SDS011;823;49.028;8.454;2023-05-19T19:32:02;6.70;;;3.43;;
1651;SDS011;823;49.028;8.454;2023-05-19T19:37:03;9.20;;;2.70;;
1651;SDS011;823;49.028;8.454;2023-05-19T19:42:03;7.10;;;2.50;;
1651;SDS011;823;49.028;8.454;2023-05-19T19:47:04;6.93;;;2.93;;
1651;SDS011;823;49.028;8.454;2023-05-19T19:52:07;6.50;;;3.50;;
1651;SDS011;823;49.028;8.454;2023-05-19T19:57:08;4.87;;;2.23;;
1651;SDS011;823;49.028;8.454;2023-05-19T20:02:08;5.57;;;3.20;;
1651;SDS011;823;49.028;8.454;2023-05-19T20:07:08;4.50;;;2.47;;
1651;SDS011;823;49.028;8.454;2023-05-19T20:12:09;3.97;;;2.55;;
1651;SDS011;823;49.028;8.454;2023-05-19T20:17:09;13.80;;;7.10;;
1651;SDS011;823;49.028;8.454;2023-05-19T20:22:09;19.85;;;7.57;;
1651;SDS011;823;49.028;8.454;2023-05-19T20:27:10;13.10;;;6.93;;
1651;SDS011;823;49.028;8.454;2023-05-19T20:32:11;11.70;;;5.63;;
1651;SDS011;823;49.028;8.454;2023-05-19T20:37:11;9.67;;;6.27;;
1651;SDS011;823;49.028;8.454;2023-05-19T20:42:12;16.03;;;7.33;;
1651;SDS011;823;49.028;8.454;2023-05-19T20:47:13;14.30;;;6.47;;
1651;SDS011;823;49.028;8.454;2023-05-19T20:52:16;12.50;;;6.73;;
1651;SDS011;823;49.028;8.454;2023-05-19T20:57:17;16.50;;;8.63;;
1651;SDS011;823;49.028;8.454;2023-05-19T21:02:17;16.03;;;9.40;;
1651;SDS011;823;49.028;8.454;2023-05-19T21:07:17;19.40;;;9.20;;
1651;SDS011;823;49.028;8.454;2023-05-19T21:12:18;21.02;;;8.32;;
1651;SDS011;823;49.028;8.454;2023-05-19T21:17:22;15.03;;;7.13;;
1651;SDS011;823;49.028;8.454;2023-05-19T21:22:23;14.45;;;6.93;;
1651;SDS011;823;49.028;8.454;2023-05-19T21:27:23;15.83;;;7.50;;
1651;SDS011;823;49.028;8.454;2023-05-19T21:32:24;13.03;;;5.57;;
1651;SDS011;823;49.028;8.454;2023-05-19T21:37:24;8.02;;;4.05;;
1651;SDS011;823;49.028;8.454;2023-05-19T21:42:25;6.03;;;3.20;;
1651;SDS011;823;49.028;8.454;2023-05-19T21:47:25;9.05;;;4.13;;
1651;SDS011;823;49.028;8.454;2023-05-19T21:52:26;9.03;;;4.10;;
1651;SDS011;823;49.028;8.454;2023-05-19T21:57:26;8.63;;;4.33;;
1651;SDS011;823;49.028;8.454;2023-05-19T22:02:26;7.97;;;3.65;;
1651;SDS011;823;49.028;8.454;2023-05-19T22:07:26;8.97;;;3.50;;
1651;SDS011;823;49.028;8.454;2023-05-19T22:12:27;7.17;;;3.20;;
1651;SDS011;823;49.028;8.454;2023-05-19T22:17:27;7.73;;;4.40;;
1651;SDS011;823;49.028;8.454;2023-05-19T22:22:28;6.70;;;3.87;;
1651;SDS011;823;49.028;8.454;2023-05-19T22:27:29;7.77;;;3.27;;
1651;SDS011;823;49.028;8.454;2023-05-19T22:32:29;6.40;;;3.73;;
1651;SDS011;823;49.028;8.454;2023-05-19T22:37:31;9.83;;;4.63;;
1651;SDS011;823;49.028;8.454;2023-05-19T22:42:31;8.82;;;4.18;;
1651;SDS011;823;49.028;8.454;2023-05-19T22:47:31;8.03;;;4.40;;
1651;SDS011;823;49.028;8.454;2023-05-19T22:52:32;9.23;;;4.20;;
1651;SDS011;823;49.028;8.454;2023-05-19T22:57:32;7.28;;;3.50;;
1651;SDS011;823;49.028;8.454;2023-05-19T23:02:32;13.47;;;5.30;;
1651;SDS011;823;49.028;8.454;2023-05-19T23:07:32;8.07;;;4.60;;
1651;SDS011;823;49.028;8.454;2023-05-19T23:12:33;5.13;;;4.00;;
1651;SDS011;823;49.028;8.454;2023-05-19T23:17:34;13.80;;;4.77;;
1651;SDS011;823;49.028;8.454;2023-05-19T23:22:34;6.13;;;3.90;;
1651;SDS011;823;49.028;8.454;2023-05-19T23:27:35;12.00;;;4.87;;
1651;SDS011;823;49.028;8.454;2023-05-19T23:32:35;7.40;;;4.10;;
1651;SDS011;823;49.028;8.454;2023-05-19T23:37:35;7.10;;;3.73;;
1651;SDS011;823;49.028;8.454;2023-05-19T23:42:36;6.30;;;3.50;;
1651;SDS011;823;49.028;8.454;2023-05-19T23:47:36;11.17;;;4.13;;
1651;SDS011;823;49.028;8.454;2023-05-19T23:52:37;9.67;;;3.97;;
1651;SDS011;823;49.028;8.454;2023-05-19T23:57:37;8.07;;;3.72;;
